Time;durP1;ratioP1;P1;durP2;ratioP2;P2;SDS_P1;SDS_P2;PMS_P1;PMS_P2;Temp;Humidity;BMP_temperature;BMP_pressure;BME280_temperature;BME280_humidity;BME280_pressure;Samples;Min_cycle;Max_cycle;Signal;HPM_P1;HPM_P2
2022/06/24 00:01:40;;;;;;;10.53;2.40;;;;;;;-143.84;48.52;45014.78;5072648;28;21020;-78
2022/06/24 00:04:08;;;;;;;3.30;1.90;;;;;;;-143.84;48.79;44991.94;5072735;28;20444;-78
2022/06/24 00:06:46;;;;;;;12.67;2.30;;;;;;;-143.84;48.77;45022.41;5072687;28;20468;-78
2022/06/24 00:09:16;;;;;;;4.63;2.23;;;;;;;-143.84;48.97;45003.38;5072746;28;20440;-78
2022/06/24 00:11:44;;;;;;;6.13;3.17;;;;;;;-143.84;49.31;45010.97;5072606;28;20448;-78
2022/06/24 00:14:14;;;;;;;3.23;2.70;;;;;;;-143.84;49.29;45012.88;5071974;28;20961;-77
2022/06/24 00:16:56;;;;;;;3.60;2.17;;;;;;;-143.84;49.51;45020.50;5072835;28;20452;-78
2022/06/24 00:19:24;;;;;;;2.60;2.30;;;;;;;-143.84;49.80;45022.41;5072448;28;20441;-78
2022/06/24 00:21:59;;;;;;;2.07;1.87;;;;;;;-143.84;50.26;45041.44;5072492;28;20992;-78
2022/06/24 00:24:29;;;;;;;8.07;2.43;;;;;;;-143.84;50.48;45020.50;5072293;28;20451;-78
2022/06/24 00:26:56;;;;;;;5.93;2.07;;;;;;;-143.84;50.81;44988.13;5072374;28;20503;-78
2022/06/24 00:29:26;;;;;;;2.77;2.50;;;;;;;-143.84;50.59;45007.19;5072322;28;20441;-78
2022/06/24 00:32:07;;;;;;;2.57;2.30;;;;;;;-143.84;50.76;45003.38;5072281;28;20981;-78
2022/06/24 00:34:35;;;;;;;3.27;2.43;;;;;;;-143.84;51.11;45018.59;5072312;28;20495;-78
2022/06/24 00:37:25;;;;;;;6.67;2.80;;;;;;;-143.84;51.25;45003.38;5072465;28;20448;-78
2022/06/24 00:39:54;;;;;;;2.60;2.40;;;;;;;-143.84;51.39;45001.47;5072182;28;20445;-77
2022/06/24 00:42:23;;;;;;;6.20;2.47;;;;;;;-143.84;51.87;45005.28;5072287;28;20453;-78
2022/06/24 00:44:58;;;;;;;6.90;2.57;;;;;;;-143.84;51.70;45026.22;5071952;28;20432;-77
2022/06/24 00:47:28;;;;;;;5.00;2.37;;;;;;;-143.84;52.08;45073.81;5071987;28;20506;-78
2022/06/24 00:49:58;;;;;;;2.13;2.00;;;;;;;-143.84;52.23;45016.69;5071802;28;20487;-78
2022/06/24 00:52:25;;;;;;;5.37;1.93;;;;;;;-143.84;52.51;45026.22;5071881;28;20443;-78
2022/06/24 00:54:54;;;;;;;4.00;2.20;;;;;;;-143.84;52.71;45022.41;5070482;28;20785;-70
2022/06/24 00:57:21;;;;;;;3.83;2.80;;;;;;;-143.84;52.84;45031.94;5069578;28;20445;-70
2022/06/24 00:59:50;;;;;;;10.60;2.80;;;;;;;-143.84;52.65;45010.97;5069566;28;20510;-70
2022/06/24 01:02:17;;;;;;;12.27;2.70;;;;;;;-143.84;52.68;45018.59;5069244;28;20436;-70
2022/06/24 01:04:45;;;;;;;11.90;2.30;;;;;;;-143.84;52.67;45020.50;5068951;28;20889;-70
2022/06/24 01:07:12;;;;;;;8.37;2.60;;;;;;;-143.84;52.85;45031.94;5069126;28;20874;-70
2022/06/24 01:09:39;;;;;;;6.23;2.33;;;;;;;-143.84;52.95;45043.34;5069093;28;20477;-70
2022/06/24 01:12:09;;;;;;;2.63;2.30;;;;;;;-143.84;53.10;45026.22;5069312;28;20445;-71
2022/06/24 01:14:36;;;;;;;2.80;2.50;;;;;;;-143.84;52.93;45024.31;5064401;28;20659;-70
2022/06/24 01:17:05;;;;;;;2.80;2.60;;;;;;;-143.84;52.86;44995.75;5048969;28;20457;-70
2022/06/24 01:19:32;;;;;;;9.73;2.67;;;;;;;-143.84;52.94;45014.78;5048908;28;20969;-70
2022/06/24 01:22:01;;;;;;;2.90;2.50;;;;;;;-143.84;52.89;45030.03;5049061;28;20508;-70
2022/06/24 01:24:28;;;;;;;4.83;2.40;;;;;;;-143.84;52.79;45016.69;5048939;28;20453;-70
2022/06/24 01:26:57;;;;;;;5.20;3.10;;;;;;;-143.84;52.87;44999.56;5048969;28;20484;-70
2022/06/24 01:29:26;;;;;;;9.50;2.37;;;;;;;-143.84;53.09;45009.09;5051220;28;20446;-78
2022/06/24 01:31:54;;;;;;;6.60;2.70;;;;;;;-143.84;53.04;45028.13;5051045;28;20962;-78
2022/06/24 01:34:24;;;;;;;2.57;2.40;;;;;;;-143.84;53.01;45018.59;5051476;28;20438;-78
2022/06/24 01:36:51;;;;;;;3.00;2.30;;;;;;;-143.84;53.19;45014.78;5051300;28;20426;-78
2022/06/24 01:39:20;;;;;;;5.37;2.87;;;;;;;-143.84;53.13;45001.47;5051332;28;20553;-78
2022/06/24 01:41:48;;;;;;;1.93;1.70;;;;;;;-143.84;52.82;45016.69;5051233;28;20444;-78
2022/06/24 01:44:15;;;;;;;3.50;2.13;;;;;;;-143.84;52.84;45009.09;5050889;28;20507;-78
2022/06/24 01:46:42;;;;;;;5.40;2.43;;;;;;;-143.84;52.94;45014.78;5050590;28;20507;-78
2022/06/24 01:49:09;;;;;;;7.10;2.40;;;;;;;-143.84;52.95;45009.09;5051087;28;20884;-78
2022/06/24 01:51:40;;;;;;;2.97;2.67;;;;;;;-143.84;52.99;45007.19;5051252;28;20502;-78
2022/06/24 01:54:07;;;;;;;4.93;3.00;;;;;;;-143.84;52.89;45007.19;5050939;28;20442;-78
2022/06/24 01:56:36;;;;;;;6.30;2.37;;;;;;;-143.84;52.84;45028.13;5051188;28;20465;-78
2022/06/24 01:59:04;;;;;;;4.43;2.50;;;;;;;-143.84;52.59;45003.38;5050603;28;20449;-78
2022/06/24 02:01:31;;;;;;;8.53;2.60;;;;;;;-143.84;52.72;45014.78;5050638;28;20437;-78
2022/06/24 02:03:59;;;;;;;4.00;2.40;;;;;;;-143.84;52.59;45014.78;5042931;28;20489;-78
2022/06/24 02:06:26;;;;;;;5.37;2.40;;;;;;;-143.84;52.57;45010.97;5048526;28;20499;-72
2022/06/24 02:08:53;;;;;;;6.40;2.50;;;;;;;-143.84;52.89;44993.84;5048382;28;20445;-71
2022/06/24 02:14:09;;;;;;;4.27;2.83;;;;;;;-143.84;53.37;45009.09;5048186;28;20428;-71
2022/06/24 02:16:37;;;;;;;4.53;2.53;;;;;;;-143.84;53.73;45033.84;5048294;28;20454;-70
2022/06/24 02:19:05;;;;;;;14.43;3.10;;;;;;;-143.84;53.96;45024.31;5048220;28;20469;-71
2022/06/24 02:21:33;;;;;;;7.03;2.43;;;;;;;-143.84;54.03;45010.97;5048116;28;20453;-70
2022/06/24 02:24:00;;;;;;;8.27;2.67;;;;;;;-143.84;54.07;45030.03;5048103;28;20487;-70
2022/06/24 02:26:28;;;;;;;2.90;2.70;;;;;;;-143.84;54.26;45001.47;5048530;28;20445;-70
2022/06/24 02:28:55;;;;;;;5.17;2.73;;;;;;;-143.84;54.24;44995.75;5048098;28;20500;-70
2022/06/24 02:31:24;;;;;;;3.03;2.73;;;;;;;-143.84;54.25;45018.59;5048284;28;20984;-70
2022/06/24 02:33:52;;;;;;;4.13;2.30;;;;;;;-143.84;54.40;45001.47;5048187;28;20505;-70
2022/06/24 02:36:19;;;;;;;7.43;2.70;;;;;;;-143.84;54.61;45012.88;5048428;28;20437;-70
2022/06/24 02:38:47;;;;;;;6.60;2.73;;;;;;;-143.84;54.83;45037.66;5048168;28;20446;-70
2022/06/24 02:41:14;;;;;;;6.13;2.70;;;;;;;-143.84;54.66;45024.31;5048173;28;20503;-70
2022/06/24 02:43:42;;;;;;;9.60;3.00;;;;;;;-143.84;54.88;45031.94;5048027;28;20437;-70
2022/06/24 02:46:10;;;;;;;8.47;3.20;;;;;;;-143.84;54.79;45022.41;5047967;28;20491;-70
2022/06/24 02:48:40;;;;;;;8.17;2.63;;;;;;;-143.84;54.94;44986.22;5064568;28;20441;-70
2022/06/24 02:51:09;;;;;;;4.90;2.63;;;;;;;-143.84;55.12;45020.50;5067964;28;20472;-70
2022/06/24 02:53:37;;;;;;;3.43;2.60;;;;;;;-143.84;55.01;45026.22;5067946;28;20433;-70
2022/06/24 02:56:06;;;;;;;4.60;2.97;;;;;;;-143.84;55.17;45009.09;5068247;28;20437;-70
2022/06/24 02:58:34;;;;;;;2.90;2.70;;;;;;;-143.84;55.14;45045.25;5069027;28;20893;-70
2022/06/24 03:01:02;;;;;;;6.40;3.00;;;;;;;-143.84;55.37;45016.69;5071228;28;20854;-70
2022/06/24 03:03:30;;;;;;;4.80;2.60;;;;;;;-143.84;55.42;44997.66;5071350;28;20445;-70
2022/06/24 03:05:59;;;;;;;8.50;3.17;;;;;;;-143.84;55.56;45009.09;5063407;28;20440;-70
2022/06/24 03:08:27;;;;;;;3.50;2.90;;;;;;;-143.84;55.71;45033.84;5071595;28;20496;-74
2022/06/24 03:10:55;;;;;;;4.80;2.87;;;;;;;-143.84;55.99;45030.03;5069587;28;20996;-73
2022/06/24 03:13:23;;;;;;;5.90;2.70;;;;;;;-143.84;55.74;45012.88;5069506;28;20465;-73
2022/06/24 03:15:50;;;;;;;5.73;2.50;;;;;;;-143.84;55.68;45012.88;5056378;28;20531;-74
2022/06/24 03:18:18;;;;;;;7.97;2.50;;;;;;;-143.84;55.52;45014.78;5051721;28;20422;-74
2022/06/24 03:20:46;;;;;;;8.47;2.60;;;;;;;-143.84;56.00;45007.19;5050993;28;20441;-73
2022/06/24 03:23:16;;;;;;;6.53;3.60;;;;;;;-143.84;56.16;44993.84;5051713;28;20985;-74
2022/06/24 03:25:43;;;;;;;5.50;2.70;;;;;;;-143.84;56.27;45016.69;5051210;28;20446;-74
2022/06/24 03:28:10;;;;;;;3.40;2.50;;;;;;;-143.84;56.14;45014.78;5051312;28;20450;-73
2022/06/24 03:30:38;;;;;;;12.23;3.07;;;;;;;-143.84;56.48;44984.31;5050493;28;20543;-72
2022/06/24 03:33:05;;;;;;;10.27;3.00;;;;;;;-143.84;56.10;45020.50;5051000;28;21138;-73
2022/06/24 03:35:32;;;;;;;9.30;2.97;;;;;;;-143.84;55.73;45001.47;5047135;28;20528;-72
2022/06/24 03:38:00;;;;;;;5.37;2.50;;;;;;;-143.84;55.15;45012.88;5031271;28;20451;-72
2022/06/24 03:40:29;;;;;;;2.93;2.60;;;;;;;-143.84;53.31;44999.56;5031034;28;20948;-72
2022/06/24 03:42:56;;;;;;;3.20;3.00;;;;;;;-143.84;51.35;45026.22;5033011;28;20446;-72
2022/06/24 03:45:23;;;;;;;3.63;2.53;;;;;;;-143.84;48.96;44978.63;5050798;28;20458;-72
2022/06/24 03:47:51;;;;;;;2.37;2.17;;;;;;;-143.84;47.49;44982.41;5050966;28;20438;-73
2022/06/24 03:50:18;;;;;;;6.77;2.73;;;;;;;-143.84;45.34;44993.84;5045665;28;20532;-76
2022/06/24 03:52:45;;;;;;;5.73;2.40;;;;;;;-143.84;44.01;44969.09;5050305;28;20461;-73
2022/06/24 03:55:12;;;;;;;2.87;2.57;;;;;;;-143.84;42.91;44967.19;5049649;28;20440;-73
2022/06/24 03:57:41;;;;;;;4.57;2.40;;;;;;;-143.84;42.22;44969.09;5049897;28;20496;-72
2022/06/24 04:00:09;;;;;;;4.50;1.80;;;;;;;-143.84;41.77;44980.53;5050252;28;20830;-72
2022/06/24 04:02:37;;;;;;;8.30;2.50;;;;;;;-143.84;41.46;44988.13;5049895;28;20480;-73
2022/06/24 04:05:05;;;;;;;7.10;2.40;;;;;;;-143.84;41.29;44965.28;5049621;28;20846;-73
2022/06/24 04:07:32;;;;;;;7.27;2.30;;;;;;;-143.84;40.87;44957.66;5050144;28;20450;-72
2022/06/24 04:09:59;;;;;;;5.33;2.30;;;;;;;-143.84;40.61;44950.06;5049914;28;20943;-73
2022/06/24 04:12:26;;;;;;;9.40;2.30;;;;;;;-143.84;40.24;44950.06;5049906;28;20481;-73
2022/06/24 04:17:39;;;;;;;8.83;2.50;;;;;;;-143.84;40.31;44957.66;5050182;28;20452;-73
2022/06/24 04:20:07;;;;;;;6.83;2.60;;;;;;;-143.84;40.00;44951.97;5050342;28;20503;-73
2022/06/24 04:22:34;;;;;;;2.90;1.93;;;;;;;-143.84;40.06;44950.06;5050286;28;21141;-72
2022/06/24 04:25:01;;;;;;;9.20;2.50;;;;;;;-143.84;40.14;44963.38;5049903;28;20491;-73
2022/06/24 04:27:29;;;;;;;8.40;2.30;;;;;;;-143.84;40.15;44959.56;5049866;28;21030;-73
2022/06/24 04:30:01;;;;;;;4.30;2.30;;;;;;;-143.84;39.94;44934.81;5049778;28;20454;-72
2022/06/24 04:32:28;;;;;;;4.80;2.10;;;;;;;-143.84;39.75;44955.75;5050123;28;20477;-74
2022/06/24 04:34:55;;;;;;;6.00;2.30;;;;;;;-143.84;39.50;44951.97;5049990;28;20503;-73
2022/06/24 04:37:23;;;;;;;4.83;2.07;;;;;;;-143.84;40.07;44950.06;5049508;28;21045;-73
2022/06/24 04:39:50;;;;;;;7.53;2.57;;;;;;;-143.84;39.66;44957.66;5050027;28;20592;-73
2022/06/24 04:42:17;;;;;;;9.47;2.70;;;;;;;-143.84;39.57;44929.09;5049536;28;20438;-73
2022/06/24 04:44:44;;;;;;;3.30;2.47;;;;;;;-143.84;39.72;44963.38;5049853;28;20759;-73
2022/06/24 04:47:13;;;;;;;3.67;2.57;;;;;;;-143.84;39.40;44942.44;5049553;28;20441;-73
2022/06/24 04:49:40;;;;;;;5.60;2.70;;;;;;;-143.84;39.01;44950.06;5049520;28;20441;-72
2022/06/24 04:52:08;;;;;;;6.83;2.83;;;;;;;-143.84;39.29;44951.97;5049369;28;21015;-72
2022/06/24 04:54:35;;;;;;;3.57;2.40;;;;;;;-143.84;39.20;44948.16;5049096;28;21100;-73
2022/06/24 04:57:02;;;;;;;2.57;2.37;;;;;;;-143.84;39.29;44963.38;5049289;28;20450;-73
2022/06/24 04:59:29;;;;;;;5.13;2.13;;;;;;;-143.84;39.55;44932.91;5049177;28;20532;-73
2022/06/24 05:01:56;;;;;;;7.00;2.30;;;;;;;-143.84;39.29;44917.69;5049231;28;20445;-73
2022/06/24 05:04:25;;;;;;;4.37;2.40;;;;;;;-143.84;39.26;44961.47;5049043;28;20437;-73
2022/06/24 05:06:52;;;;;;;2.50;1.97;;;;;;;-143.84;38.73;44951.97;5049129;28;20441;-73
2022/06/24 05:09:19;;;;;;;5.43;2.10;;;;;;;-143.84;38.71;44934.81;5049367;28;20442;-74
2022/06/24 05:11:48;;;;;;;5.13;2.20;;;;;;;-143.84;38.76;44940.53;5049245;28;20919;-74
2022/06/24 05:14:16;;;;;;;3.37;2.30;;;;;;;-143.84;38.79;44929.09;5048657;28;20457;-75
2022/06/24 05:16:44;;;;;;;3.40;1.83;;;;;;;-143.84;37.99;44908.16;5049149;28;20461;-74
2022/06/24 05:19:11;;;;;;;2.90;2.50;;;;;;;-143.84;38.41;44919.59;5048980;28;20508;-74
2022/06/24 05:21:40;;;;;;;6.60;2.00;;;;;;;-143.84;38.49;44927.19;5048261;28;20519;-74
2022/06/24 05:24:08;;;;;;;3.10;2.60;;;;;;;-143.84;38.72;44925.31;5049043;28;20450;-75
2022/06/24 05:26:36;;;;;;;15.03;2.50;;;;;;;-143.84;38.96;44931.00;5049106;28;20994;-75
2022/06/24 05:29:03;;;;;;;2.50;2.23;;;;;;;-143.84;39.09;44955.75;5049113;28;20442;-75
2022/06/24 05:31:30;;;;;;;4.73;2.50;;;;;;;-143.84;39.17;44950.06;5048897;28;20485;-75
2022/06/24 05:33:57;;;;;;;4.87;2.20;;;;;;;-143.84;40.04;44948.16;5049449;28;20519;-75
2022/06/24 05:36:24;;;;;;;2.90;2.60;;;;;;;-143.84;41.24;44967.19;5049301;28;20429;-75
2022/06/24 05:38:53;;;;;;;3.00;2.40;;;;;;;-143.84;41.46;44932.91;5049193;28;21025;-73
2022/06/24 05:41:22;;;;;;;2.70;2.50;;;;;;;-143.84;41.63;44971.00;5049053;28;20441;-73
2022/06/24 05:43:49;;;;;;;6.30;2.97;;;;;;;-143.84;42.65;44978.63;5048825;28;20449;-74
2022/06/24 05:46:17;;;;;;;8.67;2.50;;;;;;;-143.84;42.62;44957.66;5049435;28;20814;-73
2022/06/24 05:48:44;;;;;;;2.47;1.73;;;;;;;-143.84;42.78;44969.09;5048913;28;20520;-73
2022/06/24 05:51:12;;;;;;;4.20;2.13;;;;;;;-143.84;43.07;44961.47;5048871;28;20488;-75
2022/06/24 05:56:26;;;;;;;3.03;2.47;;;;;;;-143.84;43.76;44963.38;5049329;28;21206;-73
2022/06/24 05:58:53;;;;;;;4.43;2.13;;;;;;;-143.84;44.11;44957.66;5048864;28;20452;-73
2022/06/24 06:01:20;;;;;;;2.70;2.50;;;;;;;-143.84;43.76;44948.16;5048955;28;20813;-73
2022/06/24 06:03:48;;;;;;;2.57;2.37;;;;;;;-143.84;43.87;44965.28;5048698;28;20441;-72
2022/06/24 06:06:16;;;;;;;3.27;2.27;;;;;;;-143.84;44.59;44984.31;5049106;28;20440;-73
2022/06/24 06:08:43;;;;;;;3.60;2.13;;;;;;;-143.84;44.53;45005.28;5049250;28;20970;-76
2022/06/24 06:11:14;;;;;;;3.10;2.27;;;;;;;-143.84;45.06;44993.84;5058391;28;20838;-75
2022/06/24 06:13:44;;;;;;;5.23;2.87;;;;;;;-143.84;45.14;44978.63;5069455;28;20432;-75
2022/06/24 06:16:11;;;;;;;9.80;2.90;;;;;;;-143.84;45.15;44978.63;5069033;28;21345;-73
2022/06/24 06:18:40;;;;;;;2.80;2.60;;;;;;;-143.84;45.69;44969.09;5068956;28;20445;-72
2022/06/24 06:21:09;;;;;;;6.70;3.20;;;;;;;-143.84;45.89;44950.06;5068337;28;20502;-71
2022/06/24 06:23:37;;;;;;;2.60;2.20;;;;;;;-143.84;45.42;44953.88;5068211;28;20445;-72
2022/06/24 06:26:07;;;;;;;6.90;2.20;;;;;;;-143.84;45.30;44969.09;5068325;28;20981;-71
2022/06/24 06:28:34;;;;;;;5.53;2.73;;;;;;;-143.84;46.62;44963.38;5068470;28;20454;-72
2022/06/24 06:31:04;;;;;;;3.20;2.43;;;;;;;-143.84;46.56;44999.56;5068516;28;20433;-71
2022/06/24 06:33:32;;;;;;;3.43;3.03;;;;;;;-143.84;46.41;44946.25;5071317;28;20958;-71
2022/06/24 06:36:07;;;;;;;3.80;2.83;;;;;;;-143.84;45.53;44967.19;5071917;28;20441;-71
2022/06/24 06:38:34;;;;;;;7.23;2.60;;;;;;;-143.84;45.61;44967.19;5072304;28;20513;-71
2022/06/24 06:41:02;;;;;;;4.30;3.00;;;;;;;-143.84;45.33;44965.28;5071937;28;20498;-71
2022/06/24 06:43:29;;;;;;;3.63;2.20;;;;;;;-143.84;45.93;44980.53;5072267;28;20916;-71
2022/06/24 06:45:57;;;;;;;3.80;2.87;;;;;;;-143.84;46.06;44963.38;5072229;28;21174;-71
2022/06/24 06:48:26;;;;;;;7.30;2.90;;;;;;;-143.84;46.92;44967.19;5064879;28;20448;-71
2022/06/24 06:50:58;;;;;;;5.03;3.37;;;;;;;-143.84;47.49;44972.91;5060559;28;20452;-71
2022/06/24 06:53:26;;;;;;;45.50;21.00;;;;;;;-143.84;48.14;44986.22;5054249;28;20571;-71
2022/06/24 06:55:53;;;;;;;19.70;9.07;;;;;;;-143.84;48.03;44980.53;5055955;28;20456;-71
2022/06/24 06:58:22;;;;;;;12.13;6.40;;;;;;;-143.84;47.77;44988.13;5057463;28;20496;-72
2022/06/24 07:00:49;;;;;;;12.43;5.00;;;;;;;-143.84;48.09;44972.91;5059809;28;20507;-80
2022/06/24 07:03:17;;;;;;;7.00;4.20;;;;;;;-143.84;48.29;44950.06;5065818;28;20459;-80
2022/06/24 07:05:45;;;;;;;2.77;2.57;;;;;;;-143.84;48.14;44974.81;5066529;28;20440;-81
2022/06/24 07:08:14;;;;;;;23.37;14.20;;;;;;;-143.84;48.16;44976.72;5067050;28;20437;-80
2022/06/24 07:10:42;;;;;;;23.33;14.60;;;;;;;-143.84;47.96;44986.22;5065953;28;21147;-72
2022/06/24 07:13:10;;;;;;;3.43;3.13;;;;;;;-143.84;47.49;44974.81;5059441;28;20506;-72
2022/06/24 07:15:37;;;;;;;3.50;2.90;;;;;;;-143.84;47.08;44963.38;5060206;28;20592;-72
2022/06/24 07:18:06;;;;;;;11.87;2.93;;;;;;;-143.84;47.46;44967.19;5063917;28;20441;-81
2022/06/24 07:20:33;;;;;;;7.47;2.90;;;;;;;-143.84;48.04;44971.00;5066450;28;20453;-80
2022/06/24 07:23:02;;;;;;;3.70;3.40;;;;;;;-143.84;47.79;44976.72;5066767;28;20477;-81
2022/06/24 07:25:31;;;;;;;3.07;2.90;;;;;;;-143.84;47.82;44991.94;5064370;28;20934;-81
2022/06/24 07:27:58;;;;;;;3.10;2.73;;;;;;;-143.84;48.21;44991.94;5070526;28;20962;-80
2022/06/24 07:30:25;;;;;;;9.60;2.90;;;;;;;-143.84;48.51;44988.13;5069720;28;21008;-80
2022/06/24 07:32:52;;;;;;;7.80;2.77;;;;;;;-143.84;49.00;44957.66;5072095;28;20488;-80
2022/06/24 07:35:20;;;;;;;4.83;3.17;;;;;;;-143.84;49.88;44993.84;5071386;28;20830;-82
2022/06/24 07:37:47;;;;;;;3.83;2.93;;;;;;;-143.84;50.02;44993.84;5071843;28;20453;-80
2022/06/24 07:40:15;;;;;;;6.40;3.30;;;;;;;-143.84;51.07;44997.66;5072326;28;20456;-80
2022/06/24 07:42:43;;;;;;;6.07;3.20;;;;;;;-143.84;48.96;44942.44;5068806;28;20452;-81
2022/06/24 07:45:12;;;;;;;9.70;3.53;;;;;;;-143.84;48.83;44959.56;5068851;28;20476;-80
2022/06/24 07:47:40;;;;;;;7.43;3.20;;;;;;;-143.84;49.88;44984.31;5073220;28;20475;-80
2022/06/24 07:50:08;;;;;;;3.10;2.40;;;;;;;-143.84;49.42;44969.09;5071936;28;20510;-80
2022/06/24 07:52:35;;;;;;;4.60;2.40;;;;;;;-143.84;49.97;44965.28;5071755;28;20476;-82
2022/06/24 07:57:49;;;;;;;4.17;2.70;;;;;;;-143.84;48.25;44948.16;5053129;28;20483;-81
2022/06/24 08:00:17;;;;;;;2.20;2.10;;;;;;;-143.84;46.51;44942.44;5056365;28;20458;-82
2022/06/24 08:02:44;;;;;;;3.87;2.47;;;;;;;-143.84;44.70;44955.75;5072401;28;20448;-80
2022/06/24 08:05:11;;;;;;;2.03;1.93;;;;;;;-143.84;44.50;44946.25;5069721;28;20449;-83
2022/06/24 08:07:38;;;;;;;5.27;2.03;;;;;;;-143.84;44.67;44959.56;5070913;28;20444;-81
2022/06/24 08:10:07;;;;;;;3.27;2.27;;;;;;;-143.84;44.42;44946.25;5072865;28;20992;-81
2022/06/24 08:12:34;;;;;;;3.97;2.30;;;;;;;-143.84;43.56;44953.88;5072571;28;20492;-80
2022/06/24 08:15:02;;;;;;;10.80;2.67;;;;;;;-143.84;43.29;44951.97;5068780;28;20863;-80
2022/06/24 08:17:30;;;;;;;9.67;2.73;;;;;;;-143.84;43.73;44944.34;5064683;28;20468;-81
2022/06/24 08:19:57;;;;;;;7.77;2.60;;;;;;;-143.84;42.98;44955.75;5061364;28;20446;-81
2022/06/24 08:22:24;;;;;;;9.73;2.30;;;;;;;-143.84;43.70;44931.00;5069775;28;20453;-82
2022/06/24 08:24:51;;;;;;;3.23;2.07;;;;;;;-143.84;43.22;44942.44;5072136;28;21001;-83
2022/06/24 08:27:18;;;;;;;4.87;2.60;;;;;;;-143.84;43.60;44936.72;5066037;28;20506;-83
2022/06/24 08:29:45;;;;;;;4.63;2.43;;;;;;;-143.84;44.38;44948.16;5072061;28;20992;-81
2022/06/24 08:32:14;;;;;;;3.37;2.40;;;;;;;-143.84;44.25;44940.53;5073144;28;20472;-81
2022/06/24 08:34:41;;;;;;;2.53;2.33;;;;;;;-143.84;43.45;44950.06;5072478;28;20467;-83
2022/06/24 08:37:08;;;;;;;2.87;2.40;;;;;;;-143.84;42.51;44938.63;5072503;28;20444;-81
2022/06/24 08:39:35;;;;;;;5.13;2.83;;;;;;;-143.84;41.77;44946.25;5072152;28;20490;-81
2022/06/24 08:42:04;;;;;;;11.33;2.33;;;;;;;-143.84;41.59;44925.31;5072474;28;20453;-81
2022/06/24 08:44:31;;;;;;;7.90;2.20;;;;;;;-143.84;41.44;44915.78;5071925;28;20453;-81
2022/06/24 08:46:59;;;;;;;4.40;2.10;;;;;;;-143.84;42.15;44944.34;5072354;28;20467;-81
2022/06/24 08:49:28;;;;;;;5.87;2.60;;;;;;;-143.84;42.11;44925.31;5072319;28;20432;-82
2022/06/24 08:52:00;;;;;;;3.40;2.17;;;;;;;-143.84;41.85;44934.81;5072577;28;20961;-81
2022/06/24 08:54:30;;;;;;;2.80;2.47;;;;;;;-143.84;42.71;44927.19;5073076;28;20425;-81
2022/06/24 08:56:58;;;;;;;4.13;2.87;;;;;;;-143.84;42.19;44919.59;5053996;28;20468;-80
2022/06/24 08:59:28;;;;;;;6.97;2.20;;;;;;;-143.84;43.02;44946.25;5073119;28;20437;-81
2022/06/24 09:01:55;;;;;;;4.10;2.73;;;;;;;-143.84;41.59;44942.44;5071771;28;20841;-82
2022/06/24 09:04:25;;;;;;;4.07;2.97;;;;;;;-143.84;42.17;44913.88;5072594;28;20995;-82
2022/06/24 09:06:54;;;;;;;2.83;2.40;;;;;;;-143.84;42.32;44932.91;5067690;28;20473;-81
2022/06/24 09:09:26;;;;;;;2.93;2.50;;;;;;;-143.84;41.59;44942.44;5062879;28;20469;-80
2022/06/24 09:11:56;;;;;;;2.20;1.90;;;;;;;-143.84;42.63;44940.53;5063353;28;20444;-78
2022/06/24 09:14:24;;;;;;;2.43;2.00;;;;;;;-143.84;42.70;44942.44;5054609;28;20542;-78
2022/06/24 09:16:51;;;;;;;2.70;2.50;;;;;;;-143.84;40.43;44938.63;5070351;28;20534;-78
2022/06/24 09:19:19;;;;;;;4.67;2.47;;;;;;;-143.84;40.14;44936.72;5069538;28;20444;-78
2022/06/24 09:21:46;;;;;;;3.83;2.50;;;;;;;-143.84;40.31;44925.31;5071542;28;20814;-78
2022/06/24 09:24:16;;;;;;;6.70;2.30;;;;;;;-143.84;39.95;44931.00;5070703;28;20432;-79
2022/06/24 09:26:45;;;;;;;10.63;2.20;;;;;;;-143.84;41.12;44923.41;5071223;28;20441;-78
2022/06/24 09:29:14;;;;;;;4.80;2.23;;;;;;;-143.84;40.51;44915.78;5070314;28;20572;-78
2022/06/24 09:31:42;;;;;;;2.70;2.10;;;;;;;-143.84;39.88;44925.31;5070579;28;20464;-78
2022/06/24 09:34:12;;;;;;;2.10;2.00;;;;;;;-143.84;40.16;44942.44;5069877;28;20548;-77
2022/06/24 09:36:40;;;;;;;5.40;2.17;;;;;;;-143.84;40.97;44919.59;5070642;28;20506;-77
2022/06/24 09:39:10;;;;;;;1.83;1.73;;;;;;;-143.84;42.20;44911.97;5070419;28;20440;-77
2022/06/24 09:41:47;;;;;;;4.87;2.33;;;;;;;-143.84;40.46;44927.19;5069795;28;20535;-78
2022/06/24 09:44:15;;;;;;;11.00;2.33;;;;;;;-143.84;39.25;44898.66;5070013;28;20837;-77
2022/06/24 09:46:42;;;;;;;8.77;2.50;;;;;;;-143.84;39.29;44913.88;5069511;28;20456;-77
2022/06/24 09:49:14;;;;;;;9.30;2.43;;;;;;;-143.84;39.06;44906.25;5070134;28;20441;-78
2022/06/24 09:51:44;;;;;;;6.40;1.90;;;;;;;-143.84;40.35;44908.16;5064246;28;20475;-79
2022/06/24 09:54:12;;;;;;;2.13;2.03;;;;;;;-143.84;39.46;44908.16;5060103;28;20476;-78
2022/06/24 09:56:40;;;;;;;4.40;2.33;;;;;;;-143.84;39.06;44915.78;5070768;28;20456;-80
2022/06/24 10:01:55;;;;;;;10.07;2.10;;;;;;;-143.84;38.02;44915.78;5071183;28;20498;-81
2022/06/24 10:04:24;;;;;;;2.50;2.30;;;;;;;-143.84;37.95;44927.19;5071313;28;20871;-81
2022/06/24 10:06:52;;;;;;;5.43;2.17;;;;;;;-143.84;38.53;44948.16;5057076;28;20540;-80
2022/06/24 10:09:25;;;;;;;5.03;2.07;;;;;;;-143.84;38.00;44929.09;5064311;28;20468;-80
2022/06/24 10:11:54;;;;;;;7.10;2.30;;;;;;;-143.84;38.46;44910.06;5069382;28;20459;-79
2022/06/24 10:14:24;;;;;;;5.73;2.20;;;;;;;-143.84;37.96;44940.53;5065586;28;20557;-79
2022/06/24 10:16:52;;;;;;;6.13;2.17;;;;;;;-143.84;37.47;44919.59;5066722;28;20472;-80
2022/06/24 10:19:20;;;;;;;3.27;2.00;;;;;;;-143.84;37.66;44919.59;5063852;28;20440;-79
2022/06/24 10:21:48;;;;;;;6.23;2.20;;;;;;;-143.84;38.06;44942.44;5066640;28;20502;-79
2022/06/24 10:24:16;;;;;;;2.70;2.20;;;;;;;-143.84;38.48;44934.81;5074743;28;20859;-79
2022/06/24 10:26:46;;;;;;;11.63;2.40;;;;;;;-143.84;38.38;44925.31;5074061;28;20460;-79
2022/06/24 10:29:28;;;;;;;4.80;2.30;;;;;;;-143.84;38.08;44910.06;5074960;28;20440;-79
2022/06/24 10:32:00;;;;;;;3.40;2.00;;;;;;;-143.84;38.19;44932.91;5075057;28;20805;-79
2022/06/24 10:34:29;;;;;;;14.03;2.40;;;;;;;-143.84;38.89;44934.81;5074024;28;20488;-80
2022/06/24 10:37:00;;;;;;;4.70;2.07;;;;;;;-143.84;38.95;44931.00;5074802;28;20441;-79
2022/06/24 10:39:29;;;;;;;16.87;2.30;;;;;;;-143.84;37.86;44931.00;5074838;28;20440;-79
2022/06/24 10:42:00;;;;;;;5.10;2.33;;;;;;;-143.84;38.29;44904.34;5075037;28;20440;-79
2022/06/24 10:44:31;;;;;;;9.57;2.47;;;;;;;-143.84;37.10;44896.75;5066680;28;20440;-80
2022/06/24 10:47:35;;;;;;;7.43;2.20;;;;;;;-143.84;38.51;44902.44;5068013;28;20440;-81
2022/06/24 10:50:13;;;;;;;7.80;1.93;;;;;;;-143.84;37.04;44917.69;5071362;28;20456;-80
2022/06/24 10:52:43;;;;;;;8.97;2.47;;;;;;;-143.84;36.61;44902.44;5074512;28;20529;-80
2022/06/24 10:55:30;;;;;;;11.47;2.40;;;;;;;-143.84;36.59;44877.69;5073645;28;20448;-80
2022/06/24 10:57:59;;;;;;;7.07;2.23;;;;;;;-143.84;37.06;44908.16;5068211;28;20547;-80
2022/06/24 11:00:30;;;;;;;19.37;2.97;;;;;;;-143.84;37.33;44892.94;5074259;28;20440;-80
2022/06/24 11:03:13;;;;;;;12.57;2.63;;;;;;;-143.84;37.08;44894.84;5074528;28;20444;-80
2022/06/24 11:05:42;;;;;;;8.80;2.40;;;;;;;-143.84;37.30;44885.31;5072128;28;20449;-80
2022/06/24 11:08:12;;;;;;;5.67;1.83;;;;;;;-143.84;36.81;44908.16;5073501;28;20841;-80
2022/06/24 11:10:40;;;;;;;10.27;2.70;;;;;;;-143.84;35.42;44866.28;5073609;28;20814;-79
2022/06/24 11:13:08;;;;;;;4.17;2.00;;;;;;;-143.84;35.85;44891.03;5072870;28;20472;-80
2022/06/24 11:15:39;;;;;;;8.63;2.70;;;;;;;-143.84;37.67;44849.13;5073540;28;20503;-80
2022/06/24 11:18:07;;;;;;;4.13;2.63;;;;;;;-143.84;35.22;44896.75;5069744;28;20472;-80
2022/06/24 11:20:37;;;;;;;7.73;2.40;;;;;;;-143.84;35.11;44877.69;5073312;28;20524;-80
2022/06/24 11:23:09;;;;;;;17.23;2.57;;;;;;;-143.84;34.97;44881.50;5067829;28;20532;-81
2022/06/24 11:25:38;;;;;;;9.00;1.80;;;;;;;-143.84;35.33;44868.19;5059225;28;21041;-82
2022/06/24 11:28:06;;;;;;;5.70;2.57;;;;;;;-143.84;33.80;44866.28;5069440;28;20444;-82
2022/06/24 11:30:33;;;;;;;15.37;2.73;;;;;;;-143.84;34.50;44870.09;5074160;28;20449;-81
2022/06/24 11:33:02;;;;;;;11.77;2.97;;;;;;;-143.84;34.85;44879.59;5074105;28;21039;-81
2022/06/24 11:35:30;;;;;;;12.37;2.80;;;;;;;-143.84;36.18;44885.31;5073477;28;20510;-81
2022/06/24 11:37:58;;;;;;;17.27;2.80;;;;;;;-143.84;35.98;44866.28;5073809;28;20448;-81